sensor_id;sensor_type;location;lat;lon;timestamp;P1;durP1;ratioP1;P2;durP2;ratioP2
6031;SDS011;3044;43.232;27.972;2022-12-07T00:01:15;8.77;;;3.80;;
6031;SDS011;3044;43.232;27.972;2022-12-07T00:03:44;6.77;;;2.87;;
6031;SDS011;3044;43.232;27.972;2022-12-07T00:06:13;4.93;;;2.87;;
6031;SDS011;3044;43.232;27.972;2022-12-07T00:08:41;5.10;;;3.50;;
6031;SDS011;3044;43.232;27.972;2022-12-07T00:11:09;3.03;;;2.50;;
6031;SDS011;3044;43.232;27.972;2022-12-07T00:13:38;8.33;;;3.03;;
6031;SDS011;3044;43.232;27.972;2022-12-07T00:16:08;6.57;;;2.67;;
6031;SDS011;3044;43.232;27.972;2022-12-07T00:18:36;10.10;;;3.03;;
6031;SDS011;3044;43.232;27.972;2022-12-07T00:21:04;3.10;;;2.80;;
6031;SDS011;3044;43.232;27.972;2022-12-07T00:23:33;5.37;;;3.03;;
6031;SDS011;3044;43.232;27.972;2022-12-07T00:26:04;6.27;;;2.50;;
6031;SDS011;3044;43.232;27.972;2022-12-07T00:28:31;9.13;;;4.00;;
6031;SDS011;3044;43.232;27.972;2022-12-07T00:31:00;4.90;;;4.03;;
6031;SDS011;3044;43.232;27.972;2022-12-07T00:33:30;6.30;;;5.00;;
6031;SDS011;3044;43.232;27.972;2022-12-07T00:35:58;20.77;;;11.50;;
6031;SDS011;3044;43.232;27.972;2022-12-07T00:38:28;25.67;;;10.60;;
6031;SDS011;3044;43.232;27.972;2022-12-07T00:40:56;36.27;;;16.93;;
6031;SDS011;3044;43.232;27.972;2022-12-07T00:43:24;24.07;;;12.33;;
6031;SDS011;3044;43.232;27.972;2022-12-07T00:45:51;38.37;;;15.83;;
6031;SDS011;3044;43.232;27.972;2022-12-07T00:48:18;34.30;;;15.07;;
6031;SDS011;3044;43.232;27.972;2022-12-07T00:50:47;32.70;;;15.53;;
6031;SDS011;3044;43.232;27.972;2022-12-07T00:53:14;3.73;;;3.03;;
6031;SDS011;3044;43.232;27.972;2022-12-07T00:55:42;12.13;;;4.30;;
6031;SDS011;3044;43.232;27.972;2022-12-07T00:58:09;12.07;;;3.23;;
6031;SDS011;3044;43.232;27.972;2022-12-07T01:00:37;14.90;;;9.00;;
6031;SDS011;3044;43.232;27.972;2022-12-07T01:03:06;12.67;;;4.70;;
6031;SDS011;3044;43.232;27.972;2022-12-07T01:05:35;4.13;;;3.20;;
6031;SDS011;3044;43.232;27.972;2022-12-07T01:08:04;8.97;;;3.80;;
6031;SDS011;3044;43.232;27.972;2022-12-07T01:10:32;7.50;;;3.47;;
6031;SDS011;3044;43.232;27.972;2022-12-07T01:12:59;6.03;;;3.20;;
6031;SDS011;3044;43.232;27.972;2022-12-07T01:15:26;6.70;;;3.20;;
6031;SDS011;3044;43.232;27.972;2022-12-07T01:17:53;8.30;;;3.80;;
6031;SDS011;3044;43.232;27.972;2022-12-07T01:20:21;5.10;;;3.40;;
6031;SDS011;3044;43.232;27.972;2022-12-07T01:22:48;4.60;;;2.90;;
6031;SDS011;3044;43.232;27.972;2022-12-07T01:25:17;3.17;;;2.93;;
6031;SDS011;3044;43.232;27.972;2022-12-07T01:27:45;4.30;;;2.77;;
6031;SDS011;3044;43.232;27.972;2022-12-07T01:30:12;4.43;;;2.97;;
6031;SDS011;3044;43.232;27.972;2022-12-07T01:32:40;3.83;;;2.87;;
6031;SDS011;3044;43.232;27.972;2022-12-07T01:35:08;7.63;;;3.57;;
6031;SDS011;3044;43.232;27.972;2022-12-07T01:37:35;4.30;;;3.20;;
6031;SDS011;3044;43.232;27.972;2022-12-07T01:40:03;9.60;;;4.57;;
6031;SDS011;3044;43.232;27.972;2022-12-07T01:42:33;5.63;;;3.43;;
6031;SDS011;3044;43.232;27.972;2022-12-07T01:48:10;4.87;;;3.57;;
6031;SDS011;3044;43.232;27.972;2022-12-07T01:50:41;2.73;;;2.53;;
6031;SDS011;3044;43.232;27.972;2022-12-07T01:53:10;4.83;;;3.50;;
6031;SDS011;3044;43.232;27.972;2022-12-07T01:55:40;8.73;;;3.47;;
6031;SDS011;3044;43.232;27.972;2022-12-07T01:58:12;3.90;;;3.27;;
6031;SDS011;3044;43.232;27.972;2022-12-07T02:00:40;6.93;;;3.50;;
6031;SDS011;3044;43.232;27.972;2022-12-07T02:03:09;7.33;;;3.70;;
6031;SDS011;3044;43.232;27.972;2022-12-07T02:05:40;8.77;;;4.10;;
6031;SDS011;3044;43.232;27.972;2022-12-07T02:08:08;6.87;;;3.40;;
6031;SDS011;3044;43.232;27.972;2022-12-07T02:10:38;5.23;;;3.13;;
6031;SDS011;3044;43.232;27.972;2022-12-07T02:13:06;6.73;;;3.77;;
6031;SDS011;3044;43.232;27.972;2022-12-07T02:15:47;7.37;;;3.67;;
6031;SDS011;3044;43.232;27.972;2022-12-07T02:18:32;5.67;;;4.20;;
6031;SDS011;3044;43.232;27.972;2022-12-07T02:21:11;4.73;;;3.70;;
6031;SDS011;3044;43.232;27.972;2022-12-07T02:23:49;6.57;;;4.73;;
6031;SDS011;3044;43.232;27.972;2022-12-07T02:26:46;5.23;;;4.23;;
6031;SDS011;3044;43.232;27.972;2022-12-07T02:29:26;7.50;;;5.03;;
6031;SDS011;3044;43.232;27.972;2022-12-07T02:31:59;7.60;;;5.37;;
6031;SDS011;3044;43.232;27.972;2022-12-07T02:34:37;5.03;;;4.47;;
6031;SDS011;3044;43.232;27.972;2022-12-07T02:37:17;4.60;;;4.20;;
6031;SDS011;3044;43.232;27.972;2022-12-07T02:39:54;5.10;;;4.33;;
6031;SDS011;3044;43.232;27.972;2022-12-07T02:42:28;8.03;;;5.47;;
6031;SDS011;3044;43.232;27.972;2022-12-07T02:45:02;11.10;;;5.13;;
6031;SDS011;3044;43.232;27.972;2022-12-07T02:47:31;6.07;;;5.47;;
6031;SDS011;3044;43.232;27.972;2022-12-07T02:50:02;6.20;;;5.60;;
6031;SDS011;3044;43.232;27.972;2022-12-07T02:52:30;12.30;;;6.33;;
6031;SDS011;3044;43.232;27.972;2022-12-07T02:54:57;6.57;;;5.97;;
6031;SDS011;3044;43.232;27.972;2022-12-07T02:57:31;8.37;;;6.20;;
6031;SDS011;3044;43.232;27.972;2022-12-07T03:00:11;6.40;;;5.80;;
6031;SDS011;3044;43.232;27.972;2022-12-07T03:02:44;6.70;;;6.10;;
6031;SDS011;3044;43.232;27.972;2022-12-07T03:05:26;6.97;;;6.27;;
6031;SDS011;3044;43.232;27.972;2022-12-07T03:08:05;8.57;;;6.47;;
6031;SDS011;3044;43.232;27.972;2022-12-07T03:10:40;8.67;;;6.20;;
6031;SDS011;3044;43.232;27.972;2022-12-07T03:13:16;8.03;;;5.60;;
6031;SDS011;3044;43.232;27.972;2022-12-07T03:15:51;8.90;;;6.30;;
6031;SDS011;3044;43.232;27.972;2022-12-07T03:18:25;9.60;;;6.60;;
6031;SDS011;3044;43.232;27.972;2022-12-07T03:20:56;10.00;;;6.20;;
6031;SDS011;3044;43.232;27.972;2022-12-07T03:23:27;9.63;;;6.77;;
6031;SDS011;3044;43.232;27.972;2022-12-07T03:25:58;8.50;;;6.67;;
6031;SDS011;3044;43.232;27.972;2022-12-07T03:28:29;7.07;;;6.47;;
6031;SDS011;3044;43.232;27.972;2022-12-07T03:31:01;8.03;;;6.43;;
6031;SDS011;3044;43.232;27.972;2022-12-07T03:33:32;9.27;;;7.33;;
6031;SDS011;3044;43.232;27.972;2022-12-07T03:36:07;7.70;;;6.90;;
6031;SDS011;3044;43.232;27.972;2022-12-07T03:38:40;11.33;;;7.00;;
6031;SDS011;3044;43.232;27.972;2022-12-07T03:41:12;6.73;;;5.73;;
6031;SDS011;3044;43.232;27.972;2022-12-07T03:43:44;7.67;;;6.80;;
6031;SDS011;3044;43.232;27.972;2022-12-07T03:46:15;7.87;;;7.03;;
6031;SDS011;3044;43.232;27.972;2022-12-07T03:48:50;13.50;;;7.97;;
6031;SDS011;3044;43.232;27.972;2022-12-07T03:51:28;12.60;;;9.07;;
6031;SDS011;3044;43.232;27.972;2022-12-07T03:54:02;11.30;;;7.40;;
6031;SDS011;3044;43.232;27.972;2022-12-07T03:56:37;11.87;;;7.63;;
6031;SDS011;3044;43.232;27.972;2022-12-07T03:59:05;8.03;;;7.03;;
6031;SDS011;3044;43.232;27.972;2022-12-07T04:01:34;13.00;;;7.13;;
6031;SDS011;3044;43.232;27.972;2022-12-07T04:04:01;12.70;;;6.90;;
6031;SDS011;3044;43.232;27.972;2022-12-07T04:06:28;10.40;;;6.80;;
6031;SDS011;3044;43.232;27.972;2022-12-07T04:08:56;41.60;;;22.47;;
6031;SDS011;3044;43.232;27.972;2022-12-07T04:11:23;17.57;;;12.37;;
6031;SDS011;3044;43.232;27.972;2022-12-07T04:13:50;14.50;;;9.00;;
6031;SDS011;3044;43.232;27.972;2022-12-07T04:16:36;17.27;;;10.00;;
6031;SDS011;3044;43.232;27.972;2022-12-07T04:19:03;20.40;;;13.40;;
6031;SDS011;3044;43.232;27.972;2022-12-07T04:21:30;14.00;;;12.10;;
6031;SDS011;3044;43.232;27.972;2022-12-07T04:23:57;13.13;;;11.63;;
6031;SDS011;3044;43.232;27.972;2022-12-07T04:26:24;49.50;;;36.90;;
6031;SDS011;3044;43.232;27.972;2022-12-07T04:28:52;31.30;;;28.00;;
6031;SDS011;3044;43.232;27.972;2022-12-07T04:31:19;23.30;;;18.70;;
6031;SDS011;3044;43.232;27.972;2022-12-07T04:33:47;15.80;;;13.93;;
6031;SDS011;3044;43.232;27.972;2022-12-07T04:36:14;11.97;;;10.77;;
6031;SDS011;3044;43.232;27.972;2022-12-07T04:38:42;12.60;;;11.30;;
6031;SDS011;3044;43.232;27.972;2022-12-07T04:41:09;13.47;;;11.70;;
6031;SDS011;3044;43.232;27.972;2022-12-07T04:43:36;18.30;;;14.30;;
6031;SDS011;3044;43.232;27.972;2022-12-07T04:46:03;15.40;;;12.23;;
6031;SDS011;3044;43.232;27.972;2022-12-07T04:48:31;15.07;;;10.07;;
6031;SDS011;3044;43.232;27.972;2022-12-07T04:50:59;12.40;;;10.07;;
6031;SDS011;3044;43.232;27.972;2022-12-07T04:53:26;14.63;;;11.87;;
6031;SDS011;3044;43.232;27.972;2022-12-07T04:55:54;23.13;;;11.23;;
6031;SDS011;3044;43.232;27.972;2022-12-07T04:58:21;17.90;;;12.10;;
6031;SDS011;3044;43.232;27.972;2022-12-07T05:00:48;17.40;;;12.73;;
6031;SDS011;3044;43.232;27.972;2022-12-07T05:03:15;14.33;;;12.43;;
6031;SDS011;3044;43.232;27.972;2022-12-07T05:05:42;16.10;;;12.07;;
6031;SDS011;3044;43.232;27.972;2022-12-07T05:08:11;11.90;;;10.67;;
6031;SDS011;3044;43.232;27.972;2022-12-07T05:10:38;12.23;;;10.70;;
6031;SDS011;3044;43.232;27.972;2022-12-07T05:13:05;12.80;;;10.27;;
6031;SDS011;3044;43.232;27.972;2022-12-07T05:15:32;14.80;;;11.27;;
6031;SDS011;3044;43.232;27.972;2022-12-07T05:18:00;16.07;;;12.00;;
6031;SDS011;3044;43.232;27.972;2022-12-07T05:20:28;13.83;;;10.97;;
6031;SDS011;3044;43.232;27.972;2022-12-07T05:22:55;18.13;;;13.67;;
6031;SDS011;3044;43.232;27.972;2022-12-07T05:25:25;26.63;;;19.03;;
6031;SDS011;3044;43.232;27.972;2022-12-07T05:27:52;22.63;;;18.23;;
6031;SDS011;3044;43.232;27.972;2022-12-07T05:30:21;21.37;;;13.80;;
6031;SDS011;3044;43.232;27.972;2022-12-07T05:32:48;17.13;;;12.73;;
6031;SDS011;3044;43.232;27.972;2022-12-07T05:35:15;19.00;;;14.30;;
6031;SDS011;3044;43.232;27.972;2022-12-07T05:37:42;17.03;;;12.17;;
6031;SDS011;3044;43.232;27.972;2022-12-07T05:40:11;16.20;;;12.40;;
6031;SDS011;3044;43.232;27.972;2022-12-07T05:42:41;19.93;;;12.20;;
6031;SDS011;3044;43.232;27.972;2022-12-07T05:45:08;16.53;;;12.93;;
6031;SDS011;3044;43.232;27.972;2022-12-07T05:47:37;19.53;;;12.17;;
6031;SDS011;3044;43.232;27.972;2022-12-07T05:50:05;13.53;;;12.03;;
6031;SDS011;3044;43.232;27.972;2022-12-07T05:52:33;16.03;;;11.80;;
6031;SDS011;3044;43.232;27.972;2022-12-07T05:55:00;18.90;;;14.30;;
6031;SDS011;3044;43.232;27.972;2022-12-07T05:57:27;25.57;;;19.70;;
6031;SDS011;3044;43.232;27.972;2022-12-07T05:59:56;29.40;;;21.13;;
6031;SDS011;3044;43.232;27.972;2022-12-07T06:02:22;26.10;;;20.90;;
6031;SDS011;3044;43.232;27.972;2022-12-07T06:04:49;25.40;;;19.17;;
6031;SDS011;3044;43.232;27.972;2022-12-07T06:07:16;26.63;;;19.50;;
6031;SDS011;3044;43.232;27.972;2022-12-07T06:09:43;21.60;;;16.43;;
6031;SDS011;3044;43.232;27.972;2022-12-07T06:12:11;23.63;;;19.40;;
6031;SDS011;3044;43.232;27.972;2022-12-07T06:14:57;25.63;;;19.63;;
6031;SDS011;3044;43.232;27.972;2022-12-07T06:17:25;18.57;;;16.33;;
6031;SDS011;3044;43.232;27.972;2022-12-07T06:19:52;26.93;;;14.30;;
6031;SDS011;3044;43.232;27.972;2022-12-07T06:22:19;32.67;;;15.77;;
6031;SDS011;3044;43.232;27.972;2022-12-07T06:24:46;24.60;;;14.97;;
6031;SDS011;3044;43.232;27.972;2022-12-07T06:27:13;18.33;;;14.33;;
6031;SDS011;3044;43.232;27.972;2022-12-07T06:29:40;18.50;;;13.20;;
6031;SDS011;3044;43.232;27.972;2022-12-07T06:32:09;15.27;;;13.17;;
6031;SDS011;3044;43.232;27.972;2022-12-07T06:34:37;20.87;;;14.20;;
6031;SDS011;3044;43.232;27.972;2022-12-07T06:37:04;24.90;;;14.60;;
6031;SDS011;3044;43.232;27.972;2022-12-07T06:39:31;19.10;;;15.87;;
6031;SDS011;3044;43.232;27.972;2022-12-07T06:41:58;23.03;;;14.70;;
6031;SDS011;3044;43.232;27.972;2022-12-07T06:44:25;23.10;;;14.07;;
6031;SDS011;3044;43.232;27.972;2022-12-07T06:46:53;19.37;;;14.80;;
6031;SDS011;3044;43.232;27.972;2022-12-07T06:49:21;22.27;;;14.53;;
6031;SDS011;3044;43.232;27.972;2022-12-07T06:51:49;24.20;;;14.70;;
6031;SDS011;3044;43.232;27.972;2022-12-07T06:54:16;18.30;;;13.20;;
6031;SDS011;3044;43.232;27.972;2022-12-07T06:56:43;16.83;;;14.17;;
6031;SDS011;3044;43.232;27.972;2022-12-07T06:59:10;19.40;;;13.70;;
6031;SDS011;3044;43.232;27.972;2022-12-07T07:01:37;17.07;;;13.00;;
6031;SDS011;3044;43.232;27.972;2022-12-07T07:04:05;16.27;;;12.80;;
6031;SDS011;3044;43.232;27.972;2022-12-07T07:06:33;18.90;;;12.73;;
6031;SDS011;3044;43.232;27.972;2022-12-07T07:09:00;22.30;;;14.27;;
6031;SDS011;3044;43.232;27.972;2022-12-07T07:11:28;18.03;;;11.93;;
6031;SDS011;3044;43.232;27.972;2022-12-07T07:13:55;22.90;;;13.67;;
6031;SDS011;3044;43.232;27.972;2022-12-07T07:16:27;23.30;;;13.83;;
6031;SDS011;3044;43.232;27.972;2022-12-07T07:18:55;18.70;;;11.70;;
6031;SDS011;3044;43.232;27.972;2022-12-07T07:21:22;16.20;;;12.30;;
6031;SDS011;3044;43.232;27.972;2022-12-07T07:23:51;19.57;;;11.93;;
6031;SDS011;3044;43.232;27.972;2022-12-07T07:26:18;18.90;;;12.17;;
6031;SDS011;3044;43.232;27.972;2022-12-07T07:28:45;11.60;;;10.40;;
6031;SDS011;3044;43.232;27.972;2022-12-07T07:31:12;12.23;;;10.63;;
6031;SDS011;3044;43.232;27.972;2022-12-07T07:33:39;15.20;;;10.10;;
6031;SDS011;3044;43.232;27.972;2022-12-07T07:36:07;20.17;;;10.20;;
6031;SDS011;3044;43.232;27.972;2022-12-07T07:38:34;19.07;;;10.77;;
6031;SDS011;3044;43.232;27.972;2022-12-07T07:41:03;14.57;;;9.60;;
6031;SDS011;3044;43.232;27.972;2022-12-07T07:43:30;19.67;;;10.27;;
6031;SDS011;3044;43.232;27.972;2022-12-07T07:45:58;15.60;;;9.60;;
6031;SDS011;3044;43.232;27.972;2022-12-07T07:48:25;14.00;;;9.80;;
6031;SDS011;3044;43.232;27.972;2022-12-07T07:50:52;11.20;;;10.10;;
6031;SDS011;3044;43.232;27.972;2022-12-07T07:53:19;13.30;;;10.47;;
6031;SDS011;3044;43.232;27.972;2022-12-07T07:55:50;22.50;;;13.13;;
6031;SDS011;3044;43.232;27.972;2022-12-07T07:58:20;18.00;;;11.60;;
6031;SDS011;3044;43.232;27.972;2022-12-07T08:00:47;12.50;;;9.40;;
6031;SDS011;3044;43.232;27.972;2022-12-07T08:03:14;10.03;;;9.03;;
6031;SDS011;3044;43.232;27.972;2022-12-07T08:05:42;14.57;;;10.70;;
6031;SDS011;3044;43.232;27.972;2022-12-07T08:08:09;13.73;;;9.00;;
6031;SDS011;3044;43.232;27.972;2022-12-07T08:10:37;11.80;;;8.30;;
6031;SDS011;3044;43.232;27.972;2022-12-07T08:13:04;13.37;;;7.77;;
6031;SDS011;3044;43.232;27.972;2022-12-07T08:15:40;10.60;;;8.73;;
6031;SDS011;3044;43.232;27.972;2022-12-07T08:18:08;12.50;;;8.43;;
6031;SDS011;3044;43.232;27.972;2022-12-07T08:20:37;14.20;;;8.40;;
6031;SDS011;3044;43.232;27.972;2022-12-07T08:23:04;10.67;;;7.57;;
6031;SDS011;3044;43.232;27.972;2022-12-07T08:25:32;11.30;;;8.07;;
6031;SDS011;3044;43.232;27.972;2022-12-07T08:28:00;9.03;;;7.50;;
6031;SDS011;3044;43.232;27.972;2022-12-07T08:30:27;13.90;;;7.67;;
6031;SDS011;3044;43.232;27.972;2022-12-07T08:32:57;10.50;;;7.93;;
6031;SDS011;3044;43.232;27.972;2022-12-07T08:35:24;9.90;;;6.73;;
6031;SDS011;3044;43.232;27.972;2022-12-07T08:37:52;11.97;;;7.43;;
6031;SDS011;3044;43.232;27.972;2022-12-07T08:40:19;12.10;;;7.67;;
6031;SDS011;3044;43.232;27.972;2022-12-07T08:42:48;11.67;;;8.60;;
6031;SDS011;3044;43.232;27.972;2022-12-07T08:45:24;14.33;;;8.40;;
6031;SDS011;3044;43.232;27.972;2022-12-07T08:47:53;12.27;;;7.90;;
6031;SDS011;3044;43.232;27.972;2022-12-07T08:50:25;12.23;;;8.20;;
6031;SDS011;3044;43.232;27.972;2022-12-07T08:52:53;7.37;;;6.67;;
6031;SDS011;3044;43.232;27.972;2022-12-07T08:55:23;9.53;;;7.33;;
6031;SDS011;3044;43.232;27.972;2022-12-07T08:57:51;7.77;;;6.60;;
6031;SDS011;3044;43.232;27.972;2022-12-07T09:00:18;7.60;;;6.80;;
6031;SDS011;3044;43.232;27.972;2022-12-07T09:02:46;10.57;;;8.00;;
6031;SDS011;3044;43.232;27.972;2022-12-07T09:05:13;9.03;;;7.27;;
6031;SDS011;3044;43.232;27.972;2022-12-07T09:07:42;10.60;;;8.00;;
6031;SDS011;3044;43.232;27.972;2022-12-07T09:10:12;9.90;;;8.47;;
6031;SDS011;3044;43.232;27.972;2022-12-07T09:12:39;9.43;;;8.50;;
6031;SDS011;3044;43.232;27.972;2022-12-07T09:15:07;10.93;;;8.43;;
6031;SDS011;3044;43.232;27.972;2022-12-07T09:17:34;13.53;;;8.57;;
6031;SDS011;3044;43.232;27.972;2022-12-07T09:20:02;20.07;;;8.60;;
6031;SDS011;3044;43.232;27.972;2022-12-07T09:22:31;8.67;;;7.77;;
6031;SDS011;3044;43.232;27.972;2022-12-07T09:25:00;16.00;;;10.50;;
6031;SDS011;3044;43.232;27.972;2022-12-07T09:27:28;16.97;;;8.90;;
6031;SDS011;3044;43.232;27.972;2022-12-07T09:29:55;24.13;;;9.57;;
6031;SDS011;3044;43.232;27.972;2022-12-07T09:32:23;17.23;;;8.40;;
6031;SDS011;3044;43.232;27.972;2022-12-07T09:34:50;9.90;;;8.90;;
6031;SDS011;3044;43.232;27.972;2022-12-07T09:37:17;11.27;;;8.37;;
6031;SDS011;3044;43.232;27.972;2022-12-07T09:39:44;10.80;;;8.93;;
6031;SDS011;3044;43.232;27.972;2022-12-07T09:42:17;10.80;;;9.50;;
6031;SDS011;3044;43.232;27.972;2022-12-07T09:44:54;19.33;;;10.50;;
6031;SDS011;3044;43.232;27.972;2022-12-07T09:47:21;12.13;;;7.90;;
6031;SDS011;3044;43.232;27.972;2022-12-07T09:49:48;12.13;;;8.37;;
6031;SDS011;3044;43.232;27.972;2022-12-07T09:52:19;11.40;;;9.40;;
6031;SDS011;3044;43.232;27.972;2022-12-07T09:54:51;8.80;;;7.87;;
6031;SDS011;3044;43.232;27.972;2022-12-07T09:57:21;12.63;;;8.93;;
6031;SDS011;3044;43.232;27.972;2022-12-07T09:59:54;15.43;;;9.37;;
6031;SDS011;3044;43.232;27.972;2022-12-07T10:02:32;13.07;;;8.97;;
6031;SDS011;3044;43.232;27.972;2022-12-07T10:05:04;19.00;;;9.57;;
6031;SDS011;3044;43.232;27.972;2022-12-07T10:07:33;12.43;;;8.47;;
6031;SDS011;3044;43.232;27.972;2022-12-07T10:10:02;11.07;;;8.17;;
6031;SDS011;3044;43.232;27.972;2022-12-07T10:12:32;9.77;;;8.77;;
6031;SDS011;3044;43.232;27.972;2022-12-07T10:15:22;16.30;;;8.67;;
6031;SDS011;3044;43.232;27.972;2022-12-07T10:17:50;13.00;;;8.40;;
6031;SDS011;3044;43.232;27.972;2022-12-07T10:20:22;9.90;;;8.70;;
6031;SDS011;3044;43.232;27.972;2022-12-07T10:22:55;12.17;;;8.70;;
6031;SDS011;3044;43.232;27.972;2022-12-07T10:25:25;16.37;;;9.80;;
6031;SDS011;3044;43.232;27.972;2022-12-07T10:27:58;11.97;;;9.60;;
6031;SDS011;3044;43.232;27.972;2022-12-07T10:30:27;9.57;;;8.67;;
6031;SDS011;3044;43.232;27.972;2022-12-07T10:32:56;14.83;;;8.60;;
6031;SDS011;3044;43.232;27.972;2022-12-07T10:35:24;9.47;;;7.97;;
6031;SDS011;3044;43.232;27.972;2022-12-07T10:37:54;11.77;;;8.20;;
6031;SDS011;3044;43.232;27.972;2022-12-07T10:40:27;13.23;;;8.93;;
6031;SDS011;3044;43.232;27.972;2022-12-07T10:43:07;11.10;;;8.47;;
6031;SDS011;3044;43.232;27.972;2022-12-07T10:45:54;13.83;;;8.40;;
6031;SDS011;3044;43.232;27.972;2022-12-07T10:48:37;9.93;;;8.50;;
6031;SDS011;3044;43.232;27.972;2022-12-07T10:51:12;11.80;;;9.33;;
6031;SDS011;3044;43.232;27.972;2022-12-07T10:53:46;16.37;;;8.87;;
6031;SDS011;3044;43.232;27.972;2022-12-07T10:56:35;9.53;;;8.20;;
6031;SDS011;3044;43.232;27.972;2022-12-07T10:59:21;15.90;;;10.33;;
6031;SDS011;3044;43.232;27.972;2022-12-07T11:02:02;12.80;;;9.40;;
6031;SDS011;3044;43.232;27.972;2022-12-07T11:04:49;10.80;;;8.43;;
6031;SDS011;3044;43.232;27.972;2022-12-07T11:07:28;17.13;;;8.57;;
6031;SDS011;3044;43.232;27.972;2022-12-07T11:10:08;10.67;;;8.07;;
6031;SDS011;3044;43.232;27.972;2022-12-07T11:12:47;13.40;;;9.10;;
6031;SDS011;3044;43.232;27.972;2022-12-07T11:15:41;15.67;;;9.03;;
6031;SDS011;3044;43.232;27.972;2022-12-07T11:18:22;14.13;;;8.50;;
6031;SDS011;3044;43.232;27.972;2022-12-07T11:20:55;19.93;;;9.73;;
6031;SDS011;3044;43.232;27.972;2022-12-07T11:23:38;13.73;;;9.00;;
6031;SDS011;3044;43.232;27.972;2022-12-07T11:26:21;12.77;;;9.13;;
6031;SDS011;3044;43.232;27.972;2022-12-07T11:29:06;14.03;;;9.00;;
6031;SDS011;3044;43.232;27.972;2022-12-07T11:31:50;8.07;;;7.43;;
6031;SDS011;3044;43.232;27.972;2022-12-07T11:34:25;12.03;;;8.97;;
6031;SDS011;3044;43.232;27.972;2022-12-07T11:36:58;14.03;;;9.57;;
6031;SDS011;3044;43.232;27.972;2022-12-07T11:39:33;11.40;;;9.80;;
6031;SDS011;3044;43.232;27.972;2022-12-07T11:42:04;13.87;;;9.77;;
6031;SDS011;3044;43.232;27.972;2022-12-07T11:44:38;12.20;;;9.00;;
6031;SDS011;3044;43.232;27.972;2022-12-07T11:47:16;10.90;;;8.10;;
6031;SDS011;3044;43.232;27.972;2022-12-07T11:49:52;13.40;;;8.37;;
6031;SDS011;3044;43.232;27.972;2022-12-07T11:52:22;9.90;;;8.60;;
6031;SDS011;3044;43.232;27.972;2022-12-07T11:54:57;14.00;;;8.20;;
6031;SDS011;3044;43.232;27.972;2022-12-07T11:57:26;10.07;;;7.80;;
6031;SDS011;3044;43.232;27.972;2022-12-07T12:00:01;12.20;;;8.80;;
6031;SDS011;3044;43.232;27.972;2022-12-07T12:02:34;9.10;;;8.10;;
6031;SDS011;3044;43.232;27.972;2022-12-07T12:05:12;16.37;;;7.67;;
6031;SDS011;3044;43.232;27.972;2022-12-07T12:07:42;12.33;;;8.03;;
6031;SDS011;3044;43.232;27.972;2022-12-07T12:10:17;12.20;;;8.13;;
6031;SDS011;3044;43.232;27.972;2022-12-07T12:12:54;13.73;;;8.73;;
6031;SDS011;3044;43.232;27.972;2022-12-07T12:15:59;11.50;;;9.17;;
6031;SDS011;3044;43.232;27.972;2022-12-07T12:18:46;14.63;;;8.33;;
6031;SDS011;3044;43.232;27.972;2022-12-07T12:21:22;14.90;;;9.20;;
6031;SDS011;3044;43.232;27.972;2022-12-07T12:23:55;9.93;;;8.60;;
6031;SDS011;3044;43.232;27.972;2022-12-07T12:26:26;10.00;;;8.50;;
6031;SDS011;3044;43.232;27.972;2022-12-07T12:28:56;66.20;;;30.30;;
6031;SDS011;3044;43.232;27.972;2022-12-07T12:31:31;26.30;;;16.10;;
6031;SDS011;3044;43.232;27.972;2022-12-07T12:34:04;16.17;;;10.23;;
6031;SDS011;3044;43.232;27.972;2022-12-07T12:36:46;12.30;;;8.70;;
6031;SDS011;3044;43.232;27.972;2022-12-07T12:39:14;30.87;;;15.87;;
6031;SDS011;3044;43.232;27.972;2022-12-07T12:41:59;20.23;;;11.53;;
6031;SDS011;3044;43.232;27.972;2022-12-07T12:44:39;23.40;;;13.77;;
6031;SDS011;3044;43.232;27.972;2022-12-07T12:50:22;23.13;;;12.90;;
6031;SDS011;3044;43.232;27.972;2022-12-07T13:01:50;35.50;;;19.43;;
6031;SDS011;3044;43.232;27.972;2022-12-07T13:04:24;44.80;;;27.27;;
6031;SDS011;3044;43.232;27.972;2022-12-07T13:06:58;47.97;;;24.93;;
6031;SDS011;3044;43.232;27.972;2022-12-07T13:09:26;23.53;;;13.90;;
6031;SDS011;3044;43.232;27.972;2022-12-07T13:11:58;37.00;;;19.20;;
6031;SDS011;3044;43.232;27.972;2022-12-07T13:14:41;35.00;;;22.63;;
6031;SDS011;3044;43.232;27.972;2022-12-07T13:23:16;26.07;;;11.00;;
6031;SDS011;3044;43.232;27.972;2022-12-07T13:25:56;15.00;;;11.20;;
6031;SDS011;3044;43.232;27.972;2022-12-07T13:28:32;15.30;;;10.50;;
6031;SDS011;3044;43.232;27.972;2022-12-07T13:31:12;13.00;;;10.10;;
6031;SDS011;3044;43.232;27.972;2022-12-07T13:33:45;14.50;;;10.80;;
6031;SDS011;3044;43.232;27.972;2022-12-07T13:36:20;20.00;;;12.10;;
6031;SDS011;3044;43.232;27.972;2022-12-07T13:38:54;22.70;;;14.23;;
6031;SDS011;3044;43.232;27.972;2022-12-07T13:41:23;19.57;;;12.50;;
6031;SDS011;3044;43.232;27.972;2022-12-07T13:43:53;34.60;;;19.57;;
6031;SDS011;3044;43.232;27.972;2022-12-07T13:46:29;19.97;;;14.90;;
6031;SDS011;3044;43.232;27.972;2022-12-07T13:49:02;25.30;;;15.63;;
6031;SDS011;3044;43.232;27.972;2022-12-07T13:51:41;29.23;;;15.63;;
6031;SDS011;3044;43.232;27.972;2022-12-07T13:54:10;26.17;;;17.43;;
6031;SDS011;3044;43.232;27.972;2022-12-07T13:56:39;25.67;;;17.07;;
6031;SDS011;3044;43.232;27.972;2022-12-07T13:59:10;37.70;;;18.03;;
6031;SDS011;3044;43.232;27.972;2022-12-07T14:01:41;27.60;;;17.77;;
6031;SDS011;3044;43.232;27.972;2022-12-07T14:04:19;31.20;;;20.63;;
6031;SDS011;3044;43.232;27.972;2022-12-07T14:06:55;29.43;;;21.93;;
6031;SDS011;3044;43.232;27.972;2022-12-07T14:09:25;37.80;;;23.13;;
6031;SDS011;3044;43.232;27.972;2022-12-07T14:11:54;36.03;;;21.90;;
6031;SDS011;3044;43.232;27.972;2022-12-07T14:14:24;29.90;;;18.30;;
6031;SDS011;3044;43.232;27.972;2022-12-07T14:16:58;34.10;;;21.93;;
6031;SDS011;3044;43.232;27.972;2022-12-07T14:19:46;34.57;;;19.57;;
6031;SDS011;3044;43.232;27.972;2022-12-07T14:22:26;21.47;;;17.10;;
6031;SDS011;3044;43.232;27.972;2022-12-07T14:25:09;28.20;;;17.30;;
6031;SDS011;3044;43.232;27.972;2022-12-07T14:27:47;38.63;;;18.00;;
6031;SDS011;3044;43.232;27.972;2022-12-07T14:30:21;27.63;;;17.63;;
6031;SDS011;3044;43.232;27.972;2022-12-07T14:32:51;27.07;;;17.07;;
6031;SDS011;3044;43.232;27.972;2022-12-07T14:35:20;35.33;;;16.47;;
6031;SDS011;3044;43.232;27.972;2022-12-07T14:37:48;31.23;;;18.23;;
6031;SDS011;3044;43.232;27.972;2022-12-07T14:40:18;27.57;;;16.13;;
6031;SDS011;3044;43.232;27.972;2022-12-07T14:42:48;34.17;;;17.57;;
6031;SDS011;3044;43.232;27.972;2022-12-07T14:45:19;42.77;;;27.13;;
6031;SDS011;3044;43.232;27.972;2022-12-07T14:47:47;42.27;;;28.83;;
6031;SDS011;3044;43.232;27.972;2022-12-07T14:50:16;37.93;;;23.43;;
6031;SDS011;3044;43.232;27.972;2022-12-07T14:52:45;38.50;;;23.00;;
6031;SDS011;3044;43.232;27.972;2022-12-07T14:55:16;36.63;;;20.70;;
6031;SDS011;3044;43.232;27.972;2022-12-07T14:57:49;36.10;;;21.30;;
6031;SDS011;3044;43.232;27.972;2022-12-07T15:00:17;36.27;;;19.23;;
6031;SDS011;3044;43.232;27.972;2022-12-07T15:02:45;33.60;;;19.30;;
6031;SDS011;3044;43.232;27.972;2022-12-07T15:05:13;32.47;;;18.67;;
6031;SDS011;3044;43.232;27.972;2022-12-07T15:07:40;32.87;;;18.97;;
6031;SDS011;3044;43.232;27.972;2022-12-07T15:10:10;47.37;;;23.57;;
6031;SDS011;3044;43.232;27.972;2022-12-07T15:12:44;53.57;;;25.63;;
6031;SDS011;3044;43.232;27.972;2022-12-07T15:15:12;45.73;;;25.17;;
6031;SDS011;3044;43.232;27.972;2022-12-07T15:17:40;43.87;;;21.67;;
6031;SDS011;3044;43.232;27.972;2022-12-07T15:20:08;41.57;;;20.43;;
6031;SDS011;3044;43.232;27.972;2022-12-07T15:22:39;32.73;;;17.83;;
6031;SDS011;3044;43.232;27.972;2022-12-07T15:25:07;34.13;;;19.00;;
6031;SDS011;3044;43.232;27.972;2022-12-07T15:27:35;48.90;;;19.70;;
6031;SDS011;3044;43.232;27.972;2022-12-07T15:30:05;35.70;;;19.53;;